sensor_id;sensor_type;location;lat;lon;timestamp;P1;durP1;ratioP1;P2;durP2;ratioP2
25657;SDS011;13517;59.320;18.042;2023-10-19T00:02:04;4.40;;;1.77;;
25657;SDS011;13517;59.320;18.042;2023-10-19T00:04:30;3.45;;;1.67;;
25657;SDS011;13517;59.320;18.042;2023-10-19T00:07:01;5.90;;;1.88;;
25657;SDS011;13517;59.320;18.042;2023-10-19T00:09:30;2.30;;;1.58;;
25657;SDS011;13517;59.320;18.042;2023-10-19T00:12:02;5.63;;;1.88;;
25657;SDS011;13517;59.320;18.042;2023-10-19T00:14:28;3.85;;;1.90;;
25657;SDS011;13517;59.320;18.042;2023-10-19T00:16:54;4.22;;;2.00;;
25657;SDS011;13517;59.320;18.042;2023-10-19T00:19:25;3.90;;;2.20;;
25657;SDS011;13517;59.320;18.042;2023-10-19T00:21:53;5.25;;;2.50;;
25657;SDS011;13517;59.320;18.042;2023-10-19T00:24:20;3.60;;;1.90;;
25657;SDS011;13517;59.320;18.042;2023-10-19T00:26:48;6.20;;;1.95;;
25657;SDS011;13517;59.320;18.042;2023-10-19T00:29:14;3.67;;;1.90;;
25657;SDS011;13517;59.320;18.042;2023-10-19T00:31:55;5.15;;;1.67;;
25657;SDS011;13517;59.320;18.042;2023-10-19T00:34:22;4.05;;;1.70;;
25657;SDS011;13517;59.320;18.042;2023-10-19T00:36:49;3.47;;;1.73;;
25657;SDS011;13517;59.320;18.042;2023-10-19T00:39:15;5.70;;;2.08;;
25657;SDS011;13517;59.320;18.042;2023-10-19T00:41:46;4.55;;;1.58;;
25657;SDS011;13517;59.320;18.042;2023-10-19T00:44:12;7.00;;;1.90;;
25657;SDS011;13517;59.320;18.042;2023-10-19T00:46:41;6.03;;;1.75;;
25657;SDS011;13517;59.320;18.042;2023-10-19T00:49:07;3.42;;;1.63;;
25657;SDS011;13517;59.320;18.042;2023-10-19T00:51:41;3.38;;;1.67;;
25657;SDS011;13517;59.320;18.042;2023-10-19T00:54:30;3.05;;;1.73;;
25657;SDS011;13517;59.320;18.042;2023-10-19T00:57:00;2.63;;;1.50;;
25657;SDS011;13517;59.320;18.042;2023-10-19T00:59:35;2.00;;;1.45;;
25657;SDS011;13517;59.320;18.042;2023-10-19T01:02:08;4.70;;;1.45;;
25657;SDS011;13517;59.320;18.042;2023-10-19T01:04:44;4.18;;;2.03;;
25657;SDS011;13517;59.320;18.042;2023-10-19T01:07:15;3.53;;;1.50;;
25657;SDS011;13517;59.320;18.042;2023-10-19T01:09:47;4.03;;;1.77;;
25657;SDS011;13517;59.320;18.042;2023-10-19T01:12:13;5.25;;;1.52;;
25657;SDS011;13517;59.320;18.042;2023-10-19T01:15:19;2.15;;;1.42;;
25657;SDS011;13517;59.320;18.042;2023-10-19T01:17:58;3.00;;;1.63;;
25657;SDS011;13517;59.320;18.042;2023-10-19T01:20:25;1.75;;;1.20;;
25657;SDS011;13517;59.320;18.042;2023-10-19T01:28:09;3.50;;;1.20;;
25657;SDS011;13517;59.320;18.042;2023-10-19T01:30:36;3.00;;;1.80;;
25657;SDS011;13517;59.320;18.042;2023-10-19T01:33:03;6.88;;;1.52;;
25657;SDS011;13517;59.320;18.042;2023-10-19T01:35:33;2.85;;;1.60;;
25657;SDS011;13517;59.320;18.042;2023-10-19T01:38:17;2.55;;;1.50;;
25657;SDS011;13517;59.320;18.042;2023-10-19T01:40:42;4.82;;;1.60;;
25657;SDS011;13517;59.320;18.042;2023-10-19T01:43:11;2.85;;;1.30;;
25657;SDS011;13517;59.320;18.042;2023-10-19T01:45:45;3.17;;;1.50;;
25657;SDS011;13517;59.320;18.042;2023-10-19T01:48:11;2.97;;;1.48;;
25657;SDS011;13517;59.320;18.042;2023-10-19T01:50:38;3.40;;;1.80;;
25657;SDS011;13517;59.320;18.042;2023-10-19T01:53:04;3.60;;;1.58;;
25657;SDS011;13517;59.320;18.042;2023-10-19T01:55:38;4.28;;;1.67;;
25657;SDS011;13517;59.320;18.042;2023-10-19T01:58:03;2.80;;;1.70;;
25657;SDS011;13517;59.320;18.042;2023-10-19T02:00:29;5.97;;;1.83;;
25657;SDS011;13517;59.320;18.042;2023-10-19T02:02:55;7.88;;;1.55;;
25657;SDS011;13517;59.320;18.042;2023-10-19T02:05:20;3.45;;;1.70;;
25657;SDS011;13517;59.320;18.042;2023-10-19T02:07:47;5.25;;;1.77;;
25657;SDS011;13517;59.320;18.042;2023-10-19T02:10:12;2.67;;;1.48;;
25657;SDS011;13517;59.320;18.042;2023-10-19T02:12:38;2.25;;;1.50;;
25657;SDS011;13517;59.320;18.042;2023-10-19T02:15:07;3.03;;;2.58;;
25657;SDS011;13517;59.320;18.042;2023-10-19T02:17:33;2.13;;;1.35;;
25657;SDS011;13517;59.320;18.042;2023-10-19T02:19:59;4.53;;;1.50;;
25657;SDS011;13517;59.320;18.042;2023-10-19T02:22:24;4.10;;;1.55;;
25657;SDS011;13517;59.320;18.042;2023-10-19T02:24:49;2.83;;;1.38;;
25657;SDS011;13517;59.320;18.042;2023-10-19T02:27:15;3.88;;;2.03;;
25657;SDS011;13517;59.320;18.042;2023-10-19T02:29:40;2.17;;;1.20;;
25657;SDS011;13517;59.320;18.042;2023-10-19T02:32:07;2.40;;;1.20;;
25657;SDS011;13517;59.320;18.042;2023-10-19T02:34:32;3.08;;;1.65;;
25657;SDS011;13517;59.320;18.042;2023-10-19T02:36:59;6.53;;;1.75;;
25657;SDS011;13517;59.320;18.042;2023-10-19T02:39:25;3.10;;;1.52;;
25657;SDS011;13517;59.320;18.042;2023-10-19T02:41:53;2.45;;;1.48;;
25657;SDS011;13517;59.320;18.042;2023-10-19T02:44:19;1.77;;;1.23;;
25657;SDS011;13517;59.320;18.042;2023-10-19T02:46:46;1.60;;;1.13;;
25657;SDS011;13517;59.320;18.042;2023-10-19T02:49:15;2.67;;;1.70;;
25657;SDS011;13517;59.320;18.042;2023-10-19T02:51:43;3.60;;;1.50;;
25657;SDS011;13517;59.320;18.042;2023-10-19T02:54:10;3.65;;;1.27;;
25657;SDS011;13517;59.320;18.042;2023-10-19T02:56:43;2.15;;;1.38;;
25657;SDS011;13517;59.320;18.042;2023-10-19T02:59:12;2.55;;;1.08;;
25657;SDS011;13517;59.320;18.042;2023-10-19T03:01:41;1.17;;;0.80;;
25657;SDS011;13517;59.320;18.042;2023-10-19T03:04:09;3.33;;;1.40;;
25657;SDS011;13517;59.320;18.042;2023-10-19T03:06:37;2.10;;;1.20;;
25657;SDS011;13517;59.320;18.042;2023-10-19T03:09:05;2.63;;;1.20;;
25657;SDS011;13517;59.320;18.042;2023-10-19T03:11:50;3.85;;;1.52;;
25657;SDS011;13517;59.320;18.042;2023-10-19T03:14:19;4.18;;;1.10;;
25657;SDS011;13517;59.320;18.042;2023-10-19T03:16:45;3.22;;;1.25;;
25657;SDS011;13517;59.320;18.042;2023-10-19T03:19:11;3.95;;;1.17;;
25657;SDS011;13517;59.320;18.042;2023-10-19T03:21:39;4.82;;;1.02;;
25657;SDS011;13517;59.320;18.042;2023-10-19T03:24:08;2.20;;;1.40;;
25657;SDS011;13517;59.320;18.042;2023-10-19T03:26:55;2.58;;;1.38;;
25657;SDS011;13517;59.320;18.042;2023-10-19T03:29:24;5.68;;;1.35;;
25657;SDS011;13517;59.320;18.042;2023-10-19T03:32:11;4.15;;;1.35;;
25657;SDS011;13517;59.320;18.042;2023-10-19T03:34:37;6.80;;;1.42;;
25657;SDS011;13517;59.320;18.042;2023-10-19T03:37:03;10.27;;;2.28;;
25657;SDS011;13517;59.320;18.042;2023-10-19T03:39:34;3.35;;;1.45;;
25657;SDS011;13517;59.320;18.042;2023-10-19T03:42:03;4.53;;;1.40;;
25657;SDS011;13517;59.320;18.042;2023-10-19T03:44:31;5.60;;;1.40;;
25657;SDS011;13517;59.320;18.042;2023-10-19T03:47:15;3.92;;;1.50;;
25657;SDS011;13517;59.320;18.042;2023-10-19T03:49:45;5.93;;;1.40;;
25657;SDS011;13517;59.320;18.042;2023-10-19T03:52:11;5.95;;;1.80;;
25657;SDS011;13517;59.320;18.042;2023-10-19T03:54:38;5.63;;;1.63;;
25657;SDS011;13517;59.320;18.042;2023-10-19T03:57:04;4.20;;;1.38;;
25657;SDS011;13517;59.320;18.042;2023-10-19T03:59:48;3.67;;;1.80;;
25657;SDS011;13517;59.320;18.042;2023-10-19T04:02:25;2.13;;;1.20;;
25657;SDS011;13517;59.320;18.042;2023-10-19T04:05:00;3.58;;;1.75;;
25657;SDS011;13517;59.320;18.042;2023-10-19T04:07:26;2.97;;;1.45;;
25657;SDS011;13517;59.320;18.042;2023-10-19T04:09:56;6.75;;;2.67;;
25657;SDS011;13517;59.320;18.042;2023-10-19T04:12:31;5.53;;;2.05;;
25657;SDS011;13517;59.320;18.042;2023-10-19T04:14:56;5.47;;;1.90;;
25657;SDS011;13517;59.320;18.042;2023-10-19T04:17:23;6.47;;;1.90;;
25657;SDS011;13517;59.320;18.042;2023-10-19T04:19:49;5.88;;;2.10;;
25657;SDS011;13517;59.320;18.042;2023-10-19T04:22:16;3.10;;;1.92;;
25657;SDS011;13517;59.320;18.042;2023-10-19T04:24:51;5.82;;;2.15;;
25657;SDS011;13517;59.320;18.042;2023-10-19T04:27:17;4.78;;;2.72;;
25657;SDS011;13517;59.320;18.042;2023-10-19T04:29:46;4.35;;;2.17;;
25657;SDS011;13517;59.320;18.042;2023-10-19T04:32:12;2.55;;;1.70;;
25657;SDS011;13517;59.320;18.042;2023-10-19T04:34:39;7.10;;;3.05;;
25657;SDS011;13517;59.320;18.042;2023-10-19T04:37:05;5.30;;;1.90;;
25657;SDS011;13517;59.320;18.042;2023-10-19T04:39:32;5.18;;;2.05;;
25657;SDS011;13517;59.320;18.042;2023-10-19T04:41:59;5.43;;;2.15;;
25657;SDS011;13517;59.320;18.042;2023-10-19T04:44:25;2.88;;;1.77;;
25657;SDS011;13517;59.320;18.042;2023-10-19T04:46:50;6.68;;;3.17;;
25657;SDS011;13517;59.320;18.042;2023-10-19T04:49:15;6.45;;;2.08;;
25657;SDS011;13517;59.320;18.042;2023-10-19T04:51:41;10.80;;;2.15;;
25657;SDS011;13517;59.320;18.042;2023-10-19T04:54:08;3.35;;;1.65;;
25657;SDS011;13517;59.320;18.042;2023-10-19T04:56:34;9.88;;;2.47;;
25657;SDS011;13517;59.320;18.042;2023-10-19T04:59:01;2.65;;;1.65;;
25657;SDS011;13517;59.320;18.042;2023-10-19T05:01:27;5.70;;;1.77;;
25657;SDS011;13517;59.320;18.042;2023-10-19T05:03:53;4.15;;;2.00;;
25657;SDS011;13517;59.320;18.042;2023-10-19T05:06:18;6.28;;;2.08;;
25657;SDS011;13517;59.320;18.042;2023-10-19T05:08:44;3.20;;;1.70;;
25657;SDS011;13517;59.320;18.042;2023-10-19T05:11:11;5.80;;;1.95;;
25657;SDS011;13517;59.320;18.042;2023-10-19T05:13:37;5.18;;;2.10;;
25657;SDS011;13517;59.320;18.042;2023-10-19T05:16:04;10.35;;;2.10;;
25657;SDS011;13517;59.320;18.042;2023-10-19T05:18:29;3.63;;;1.75;;
25657;SDS011;13517;59.320;18.042;2023-10-19T05:20:55;4.38;;;1.98;;
25657;SDS011;13517;59.320;18.042;2023-10-19T05:23:22;5.90;;;2.25;;
25657;SDS011;13517;59.320;18.042;2023-10-19T05:25:51;4.68;;;2.03;;
25657;SDS011;13517;59.320;18.042;2023-10-19T05:28:18;5.97;;;2.03;;
25657;SDS011;13517;59.320;18.042;2023-10-19T05:30:44;6.60;;;2.17;;
25657;SDS011;13517;59.320;18.042;2023-10-19T05:33:10;5.97;;;1.92;;
25657;SDS011;13517;59.320;18.042;2023-10-19T05:35:36;9.45;;;2.15;;
25657;SDS011;13517;59.320;18.042;2023-10-19T05:38:06;4.00;;;1.98;;
25657;SDS011;13517;59.320;18.042;2023-10-19T05:40:32;12.15;;;2.72;;
25657;SDS011;13517;59.320;18.042;2023-10-19T05:42:59;17.60;;;2.92;;
25657;SDS011;13517;59.320;18.042;2023-10-19T05:45:26;7.20;;;3.33;;
25657;SDS011;13517;59.320;18.042;2023-10-19T05:47:52;6.28;;;3.30;;
25657;SDS011;13517;59.320;18.042;2023-10-19T05:50:18;6.55;;;3.53;;
25657;SDS011;13517;59.320;18.042;2023-10-19T05:52:44;6.55;;;3.17;;
25657;SDS011;13517;59.320;18.042;2023-10-19T05:55:10;8.82;;;2.92;;
25657;SDS011;13517;59.320;18.042;2023-10-19T05:57:37;10.43;;;5.20;;
25657;SDS011;13517;59.320;18.042;2023-10-19T06:00:06;7.20;;;3.42;;
25657;SDS011;13517;59.320;18.042;2023-10-19T06:02:38;6.60;;;2.90;;
25657;SDS011;13517;59.320;18.042;2023-10-19T06:05:12;8.65;;;3.08;;
25657;SDS011;13517;59.320;18.042;2023-10-19T06:07:40;7.43;;;3.10;;
25657;SDS011;13517;59.320;18.042;2023-10-19T06:10:06;6.65;;;3.22;;
25657;SDS011;13517;59.320;18.042;2023-10-19T06:12:32;7.03;;;3.47;;
25657;SDS011;13517;59.320;18.042;2023-10-19T06:14:58;7.18;;;2.45;;
25657;SDS011;13517;59.320;18.042;2023-10-19T06:17:25;9.77;;;2.63;;
25657;SDS011;13517;59.320;18.042;2023-10-19T06:19:51;10.43;;;4.10;;
25657;SDS011;13517;59.320;18.042;2023-10-19T06:22:17;9.55;;;3.60;;
25657;SDS011;13517;59.320;18.042;2023-10-19T06:24:42;8.07;;;3.97;;
25657;SDS011;13517;59.320;18.042;2023-10-19T06:27:09;6.28;;;3.33;;
25657;SDS011;13517;59.320;18.042;2023-10-19T06:29:35;6.20;;;3.28;;
25657;SDS011;13517;59.320;18.042;2023-10-19T06:32:00;12.05;;;3.75;;
25657;SDS011;13517;59.320;18.042;2023-10-19T06:34:25;6.43;;;2.90;;
25657;SDS011;13517;59.320;18.042;2023-10-19T06:36:52;5.40;;;2.85;;
25657;SDS011;13517;59.320;18.042;2023-10-19T06:39:19;8.65;;;3.05;;
25657;SDS011;13517;59.320;18.042;2023-10-19T06:41:45;6.65;;;4.22;;
25657;SDS011;13517;59.320;18.042;2023-10-19T06:44:11;7.82;;;3.13;;
25657;SDS011;13517;59.320;18.042;2023-10-19T06:46:37;8.13;;;3.38;;
25657;SDS011;13517;59.320;18.042;2023-10-19T06:49:04;7.13;;;2.88;;
25657;SDS011;13517;59.320;18.042;2023-10-19T06:51:30;4.95;;;2.95;;
25657;SDS011;13517;59.320;18.042;2023-10-19T06:53:55;8.30;;;3.38;;
25657;SDS011;13517;59.320;18.042;2023-10-19T06:56:21;7.90;;;2.90;;
25657;SDS011;13517;59.320;18.042;2023-10-19T06:58:46;13.48;;;4.07;;
25657;SDS011;13517;59.320;18.042;2023-10-19T07:01:13;7.82;;;2.92;;
25657;SDS011;13517;59.320;18.042;2023-10-19T07:03:41;9.13;;;3.47;;
25657;SDS011;13517;59.320;18.042;2023-10-19T07:06:07;6.80;;;3.47;;
25657;SDS011;13517;59.320;18.042;2023-10-19T07:08:33;5.68;;;3.17;;
25657;SDS011;13517;59.320;18.042;2023-10-19T07:10:58;7.60;;;2.70;;
25657;SDS011;13517;59.320;18.042;2023-10-19T07:13:25;4.65;;;2.92;;
25657;SDS011;13517;59.320;18.042;2023-10-19T07:15:50;7.25;;;2.75;;
25657;SDS011;13517;59.320;18.042;2023-10-19T07:18:16;9.40;;;3.33;;
25657;SDS011;13517;59.320;18.042;2023-10-19T07:20:42;6.15;;;3.20;;
25657;SDS011;13517;59.320;18.042;2023-10-19T07:23:08;5.35;;;3.17;;
25657;SDS011;13517;59.320;18.042;2023-10-19T07:25:52;4.80;;;3.30;;
25657;SDS011;13517;59.320;18.042;2023-10-19T07:28:19;7.65;;;2.80;;
25657;SDS011;13517;59.320;18.042;2023-10-19T07:30:46;5.60;;;3.05;;
25657;SDS011;13517;59.320;18.042;2023-10-19T07:33:12;6.63;;;2.60;;
25657;SDS011;13517;59.320;18.042;2023-10-19T07:35:48;4.65;;;2.10;;
25657;SDS011;13517;59.320;18.042;2023-10-19T07:38:17;4.47;;;2.20;;
25657;SDS011;13517;59.320;18.042;2023-10-19T07:40:46;4.72;;;2.25;;
25657;SDS011;13517;59.320;18.042;2023-10-19T07:43:11;8.57;;;2.05;;
25657;SDS011;13517;59.320;18.042;2023-10-19T07:45:37;7.13;;;2.10;;
25657;SDS011;13517;59.320;18.042;2023-10-19T07:48:03;3.15;;;2.05;;
25657;SDS011;13517;59.320;18.042;2023-10-19T07:50:36;3.88;;;2.25;;
25657;SDS011;13517;59.320;18.042;2023-10-19T07:53:02;5.57;;;2.20;;
25657;SDS011;13517;59.320;18.042;2023-10-19T07:55:29;2.67;;;1.90;;
25657;SDS011;13517;59.320;18.042;2023-10-19T07:57:57;3.90;;;1.83;;
25657;SDS011;13517;59.320;18.042;2023-10-19T08:00:25;3.08;;;1.98;;
25657;SDS011;13517;59.320;18.042;2023-10-19T08:02:51;3.08;;;2.08;;
25657;SDS011;13517;59.320;18.042;2023-10-19T08:05:19;5.05;;;2.03;;
25657;SDS011;13517;59.320;18.042;2023-10-19T08:07:45;4.60;;;2.83;;
25657;SDS011;13517;59.320;18.042;2023-10-19T08:10:14;8.05;;;2.38;;
25657;SDS011;13517;59.320;18.042;2023-10-19T08:12:41;2.17;;;1.50;;
25657;SDS011;13517;59.320;18.042;2023-10-19T08:15:08;3.67;;;1.98;;
25657;SDS011;13517;59.320;18.042;2023-10-19T08:17:41;3.50;;;2.05;;
25657;SDS011;13517;59.320;18.042;2023-10-19T08:20:08;3.10;;;1.88;;
25657;SDS011;13517;59.320;18.042;2023-10-19T08:22:41;3.55;;;2.20;;
25657;SDS011;13517;59.320;18.042;2023-10-19T08:25:11;6.15;;;2.13;;
25657;SDS011;13517;59.320;18.042;2023-10-19T08:27:40;5.00;;;2.28;;
25657;SDS011;13517;59.320;18.042;2023-10-19T08:30:09;4.28;;;2.20;;
25657;SDS011;13517;59.320;18.042;2023-10-19T08:32:38;4.85;;;3.10;;
25657;SDS011;13517;59.320;18.042;2023-10-19T08:35:05;6.18;;;2.00;;
25657;SDS011;13517;59.320;18.042;2023-10-19T08:37:30;6.38;;;1.95;;
25657;SDS011;13517;59.320;18.042;2023-10-19T08:39:56;2.58;;;1.50;;
25657;SDS011;13517;59.320;18.042;2023-10-19T08:42:23;3.60;;;1.60;;
25657;SDS011;13517;59.320;18.042;2023-10-19T08:44:48;3.08;;;1.90;;
25657;SDS011;13517;59.320;18.042;2023-10-19T08:47:14;2.83;;;1.77;;
25657;SDS011;13517;59.320;18.042;2023-10-19T08:49:40;3.72;;;2.38;;
25657;SDS011;13517;59.320;18.042;2023-10-19T08:52:06;5.93;;;2.10;;
25657;SDS011;13517;59.320;18.042;2023-10-19T08:54:32;6.28;;;2.08;;
25657;SDS011;13517;59.320;18.042;2023-10-19T08:56:59;3.65;;;2.22;;
25657;SDS011;13517;59.320;18.042;2023-10-19T08:59:24;3.50;;;1.88;;
25657;SDS011;13517;59.320;18.042;2023-10-19T09:01:50;4.40;;;1.77;;
25657;SDS011;13517;59.320;18.042;2023-10-19T09:04:15;6.80;;;1.77;;
25657;SDS011;13517;59.320;18.042;2023-10-19T09:06:44;2.78;;;1.35;;
25657;SDS011;13517;59.320;18.042;2023-10-19T09:09:11;2.03;;;1.40;;
25657;SDS011;13517;59.320;18.042;2023-10-19T09:11:50;2.05;;;1.60;;
25657;SDS011;13517;59.320;18.042;2023-10-19T09:14:31;3.00;;;1.77;;
25657;SDS011;13517;59.320;18.042;2023-10-19T09:17:01;3.28;;;1.38;;
25657;SDS011;13517;59.320;18.042;2023-10-19T09:19:38;1.42;;;1.10;;
25657;SDS011;13517;59.320;18.042;2023-10-19T09:22:07;4.30;;;1.67;;
25657;SDS011;13517;59.320;18.042;2023-10-19T09:24:41;6.32;;;1.65;;
25657;SDS011;13517;59.320;18.042;2023-10-19T09:27:07;1.98;;;1.10;;
25657;SDS011;13517;59.320;18.042;2023-10-19T09:29:33;3.10;;;1.10;;
25657;SDS011;13517;59.320;18.042;2023-10-19T09:31:58;3.00;;;1.45;;
25657;SDS011;13517;59.320;18.042;2023-10-19T09:34:29;3.22;;;1.10;;
25657;SDS011;13517;59.320;18.042;2023-10-19T09:36:58;2.78;;;1.25;;
25657;SDS011;13517;59.320;18.042;2023-10-19T09:39:28;2.78;;;1.40;;
25657;SDS011;13517;59.320;18.042;2023-10-19T09:42:00;2.45;;;1.20;;
25657;SDS011;13517;59.320;18.042;2023-10-19T09:44:42;2.50;;;1.27;;
25657;SDS011;13517;59.320;18.042;2023-10-19T09:47:10;2.65;;;0.95;;
25657;SDS011;13517;59.320;18.042;2023-10-19T09:49:38;1.60;;;1.05;;
25657;SDS011;13517;59.320;18.042;2023-10-19T09:52:10;3.75;;;1.20;;
25657;SDS011;13517;59.320;18.042;2023-10-19T09:54:45;3.60;;;1.20;;
25657;SDS011;13517;59.320;18.042;2023-10-19T09:57:19;3.88;;;1.50;;
25657;SDS011;13517;59.320;18.042;2023-10-19T09:59:55;3.03;;;1.50;;
25657;SDS011;13517;59.320;18.042;2023-10-19T10:02:24;3.20;;;1.50;;
25657;SDS011;13517;59.320;18.042;2023-10-19T10:04:52;2.95;;;1.90;;
25657;SDS011;13517;59.320;18.042;2023-10-19T10:07:18;2.25;;;1.50;;
25657;SDS011;13517;59.320;18.042;2023-10-19T10:09:43;5.88;;;2.38;;
25657;SDS011;13517;59.320;18.042;2023-10-19T10:12:19;2.10;;;1.55;;
25657;SDS011;13517;59.320;18.042;2023-10-19T10:17:22;8.88;;;2.20;;
25657;SDS011;13517;59.320;18.042;2023-10-19T10:19:48;6.35;;;1.90;;
25657;SDS011;13517;59.320;18.042;2023-10-19T10:22:13;3.35;;;1.63;;
25657;SDS011;13517;59.320;18.042;2023-10-19T10:24:46;3.13;;;1.73;;
25657;SDS011;13517;59.320;18.042;2023-10-19T10:27:14;3.22;;;1.95;;
25657;SDS011;13517;59.320;18.042;2023-10-19T10:32:45;3.10;;;2.08;;
25657;SDS011;13517;59.320;18.042;2023-10-19T10:35:09;4.10;;;1.90;;
25657;SDS011;13517;59.320;18.042;2023-10-19T10:37:37;2.17;;;1.70;;
25657;SDS011;13517;59.320;18.042;2023-10-19T10:40:05;4.43;;;1.92;;
25657;SDS011;13517;59.320;18.042;2023-10-19T10:42:31;3.15;;;2.20;;
25657;SDS011;13517;59.320;18.042;2023-10-19T10:44:56;4.60;;;1.90;;
25657;SDS011;13517;59.320;18.042;2023-10-19T10:47:22;4.70;;;1.90;;
25657;SDS011;13517;59.320;18.042;2023-10-19T10:49:50;3.95;;;2.40;;
25657;SDS011;13517;59.320;18.042;2023-10-19T10:52:49;4.35;;;2.00;;
25657;SDS011;13517;59.320;18.042;2023-10-19T10:55:09;5.25;;;2.75;;
25657;SDS011;13517;59.320;18.042;2023-10-19T10:57:37;2.80;;;2.28;;
25657;SDS011;13517;59.320;18.042;2023-10-19T11:00:07;5.45;;;2.30;;
25657;SDS011;13517;59.320;18.042;2023-10-19T11:02:41;6.05;;;2.50;;
25657;SDS011;13517;59.320;18.042;2023-10-19T11:05:15;6.60;;;2.75;;
25657;SDS011;13517;59.320;18.042;2023-10-19T11:07:46;2.80;;;2.10;;
25657;SDS011;13517;59.320;18.042;2023-10-19T11:10:30;8.93;;;2.25;;
25657;SDS011;13517;59.320;18.042;2023-10-19T11:13:06;4.28;;;2.30;;
25657;SDS011;13517;59.320;18.042;2023-10-19T11:15:32;4.93;;;2.08;;
25657;SDS011;13517;59.320;18.042;2023-10-19T11:17:58;2.85;;;2.00;;
25657;SDS011;13517;59.320;18.042;2023-10-19T11:20:24;3.35;;;1.95;;
25657;SDS011;13517;59.320;18.042;2023-10-19T11:22:52;4.30;;;2.03;;
25657;SDS011;13517;59.320;18.042;2023-10-19T11:25:21;8.57;;;2.20;;
25657;SDS011;13517;59.320;18.042;2023-10-19T11:27:56;3.40;;;1.90;;
25657;SDS011;13517;59.320;18.042;2023-10-19T11:30:32;7.72;;;1.83;;
25657;SDS011;13517;59.320;18.042;2023-10-19T11:32:57;4.75;;;2.00;;
25657;SDS011;13517;59.320;18.042;2023-10-19T11:35:26;8.30;;;2.50;;
25657;SDS011;13517;59.320;18.042;2023-10-19T11:37:54;4.80;;;2.00;;
25657;SDS011;13517;59.320;18.042;2023-10-19T11:40:21;3.25;;;2.10;;
25657;SDS011;13517;59.320;18.042;2023-10-19T11:42:48;1.98;;;1.65;;
25657;SDS011;13517;59.320;18.042;2023-10-19T11:45:14;5.05;;;2.20;;
25657;SDS011;13517;59.320;18.042;2023-10-19T11:47:41;4.75;;;2.60;;
25657;SDS011;13517;59.320;18.042;2023-10-19T11:50:10;5.03;;;2.42;;
25657;SDS011;13517;59.320;18.042;2023-10-19T11:52:41;4.75;;;1.77;;
25657;SDS011;13517;59.320;18.042;2023-10-19T11:55:11;5.63;;;2.35;;
25657;SDS011;13517;59.320;18.042;2023-10-19T11:57:38;3.40;;;2.20;;
25657;SDS011;13517;59.320;18.042;2023-10-19T12:00:05;3.85;;;1.98;;
25657;SDS011;13517;59.320;18.042;2023-10-19T12:02:35;4.50;;;1.73;;
25657;SDS011;13517;59.320;18.042;2023-10-19T12:05:02;2.63;;;2.00;;
25657;SDS011;13517;59.320;18.042;2023-10-19T12:07:29;6.07;;;2.25;;
25657;SDS011;13517;59.320;18.042;2023-10-19T12:09:55;2.67;;;1.80;;
25657;SDS011;13517;59.320;18.042;2023-10-19T12:12:21;2.85;;;1.95;;
25657;SDS011;13517;59.320;18.042;2023-10-19T12:14:46;3.92;;;2.60;;
25657;SDS011;13517;59.320;18.042;2023-10-19T12:17:12;6.80;;;1.83;;
25657;SDS011;13517;59.320;18.042;2023-10-19T12:19:38;2.67;;;1.85;;
25657;SDS011;13517;59.320;18.042;2023-10-19T12:22:03;3.60;;;2.53;;
25657;SDS011;13517;59.320;18.042;2023-10-19T12:24:28;3.50;;;1.85;;
25657;SDS011;13517;59.320;18.042;2023-10-19T12:26:54;4.45;;;2.10;;
25657;SDS011;13517;59.320;18.042;2023-10-19T12:29:20;5.28;;;1.90;;
25657;SDS011;13517;59.320;18.042;2023-10-19T12:31:48;2.42;;;1.50;;
25657;SDS011;13517;59.320;18.042;2023-10-19T12:34:13;5.45;;;1.90;;
25657;SDS011;13517;59.320;18.042;2023-10-19T12:36:39;3.95;;;1.70;;
25657;SDS011;13517;59.320;18.042;2023-10-19T12:39:06;6.95;;;2.53;;
25657;SDS011;13517;59.320;18.042;2023-10-19T12:41:32;4.75;;;2.28;;
25657;SDS011;13517;59.320;18.042;2023-10-19T12:43:58;2.28;;;1.73;;
25657;SDS011;13517;59.320;18.042;2023-10-19T12:46:27;4.00;;;1.95;;
25657;SDS011;13517;59.320;18.042;2023-10-19T12:48:54;2.17;;;1.77;;
25657;SDS011;13517;59.320;18.042;2023-10-19T12:51:23;2.63;;;1.70;;
25657;SDS011;13517;59.320;18.042;2023-10-19T12:53:52;7.00;;;2.30;;
25657;SDS011;13517;59.320;18.042;2023-10-19T12:56:19;5.18;;;1.77;;
25657;SDS011;13517;59.320;18.042;2023-10-19T12:58:45;3.70;;;1.80;;
25657;SDS011;13517;59.320;18.042;2023-10-19T13:01:13;8.73;;;1.80;;
25657;SDS011;13517;59.320;18.042;2023-10-19T13:03:44;3.33;;;1.88;;
25657;SDS011;13517;59.320;18.042;2023-10-19T13:06:11;3.83;;;1.80;;
25657;SDS011;13517;59.320;18.042;2023-10-19T13:08:37;3.08;;;1.95;;
25657;SDS011;13517;59.320;18.042;2023-10-19T13:11:05;3.42;;;2.00;;
25657;SDS011;13517;59.320;18.042;2023-10-19T13:13:31;2.80;;;1.70;;
25657;SDS011;13517;59.320;18.042;2023-10-19T13:15:57;3.28;;;1.90;;
25657;SDS011;13517;59.320;18.042;2023-10-19T13:18:22;3.67;;;1.75;;
25657;SDS011;13517;59.320;18.042;2023-10-19T13:20:52;2.22;;;1.40;;
25657;SDS011;13517;59.320;18.042;2023-10-19T13:23:19;2.00;;;1.55;;
25657;SDS011;13517;59.320;18.042;2023-10-19T13:25:51;4.18;;;1.85;;
25657;SDS011;13517;59.320;18.042;2023-10-19T13:28:23;3.47;;;2.08;;
25657;SDS011;13517;59.320;18.042;2023-10-19T13:30:49;5.47;;;1.70;;
25657;SDS011;13517;59.320;18.042;2023-10-19T13:33:18;4.72;;;1.48;;
25657;SDS011;13517;59.320;18.042;2023-10-19T13:35:46;2.88;;;1.52;;
25657;SDS011;13517;59.320;18.042;2023-10-19T13:38:13;2.60;;;1.45;;
25657;SDS011;13517;59.320;18.042;2023-10-19T13:40:40;2.78;;;1.83;;
25657;SDS011;13517;59.320;18.042;2023-10-19T13:43:07;4.13;;;2.53;;
25657;SDS011;13517;59.320;18.042;2023-10-19T13:45:38;3.97;;;2.00;;
25657;SDS011;13517;59.320;18.042;2023-10-19T13:48:06;2.70;;;1.52;;
25657;SDS011;13517;59.320;18.042;2023-10-19T13:50:32;2.88;;;1.65;;
25657;SDS011;13517;59.320;18.042;2023-10-19T13:52:59;7.40;;;2.10;;
25657;SDS011;13517;59.320;18.042;2023-10-19T13:55:28;2.30;;;1.50;;
25657;SDS011;13517;59.320;18.042;2023-10-19T13:57:56;3.10;;;1.67;;
25657;SDS011;13517;59.320;18.042;2023-10-19T14:00:22;2.00;;;1.35;;
25657;SDS011;13517;59.320;18.042;2023-10-19T14:02:50;4.03;;;1.65;;
25657;SDS011;13517;59.320;18.042;2023-10-19T14:05:16;4.50;;;2.03;;
25657;SDS011;13517;59.320;18.042;2023-10-19T14:07:43;3.92;;;1.65;;
25657;SDS011;13517;59.320;18.042;2023-10-19T14:10:10;4.63;;;1.67;;
25657;SDS011;13517;59.320;18.042;2023-10-19T14:12:38;3.17;;;1.73;;
25657;SDS011;13517;59.320;18.042;2023-10-19T14:15:07;4.80;;;1.80;;
25657;SDS011;13517;59.320;18.042;2023-10-19T14:17:37;2.63;;;1.63;;
25657;SDS011;13517;59.320;18.042;2023-10-19T14:20:02;3.25;;;1.30;;
25657;SDS011;13517;59.320;18.042;2023-10-19T14:22:30;2.17;;;1.60;;
25657;SDS011;13517;59.320;18.042;2023-10-19T14:24:59;3.05;;;1.60;;
25657;SDS011;13517;59.320;18.042;2023-10-19T14:27:25;7.63;;;3.20;;
25657;SDS011;13517;59.320;18.042;2023-10-19T14:29:50;11.20;;;4.38;;
25657;SDS011;13517;59.320;18.042;2023-10-19T14:32:16;3.15;;;1.83;;
25657;SDS011;13517;59.320;18.042;2023-10-19T14:34:41;2.65;;;1.30;;
25657;SDS011;13517;59.320;18.042;2023-10-19T14:37:07;5.35;;;2.17;;
25657;SDS011;13517;59.320;18.042;2023-10-19T14:39:33;3.55;;;1.75;;
25657;SDS011;13517;59.320;18.042;2023-10-19T14:41:58;2.90;;;1.60;;
25657;SDS011;13517;59.320;18.042;2023-10-19T14:44:24;2.95;;;1.60;;
25657;SDS011;13517;59.320;18.042;2023-10-19T14:46:49;5.40;;;2.05;;
25657;SDS011;13517;59.320;18.042;2023-10-19T14:49:15;2.83;;;1.70;;
25657;SDS011;13517;59.320;18.042;2023-10-19T14:51:40;2.28;;;1.58;;